createdAt,value
2018-10-11T00:01:06.897Z,23.77
2018-10-11T00:03:36.292Z,32.37
2018-10-11T00:06:05.715Z,28.90
2018-10-11T00:08:35.381Z,27.53
2018-10-11T00:11:04.803Z,23.57
2018-10-11T00:13:34.221Z,28.70
2018-10-11T00:16:03.645Z,19.00
2018-10-11T00:18:33.971Z,20.45
2018-10-11T00:21:03.400Z,23.77
2018-10-11T00:23:34.069Z,30.90
2018-10-11T00:26:03.494Z,28.70
2018-10-11T00:28:34.128Z,23.27
2018-10-11T00:31:03.576Z,25.90
2018-10-11T00:33:34.161Z,29.76
2018-10-11T00:36:03.599Z,31.20
2018-10-11T00:38:34.020Z,27.07
2018-10-11T00:41:03.452Z,30.60
2018-10-11T00:43:34.100Z,24.33
2018-10-11T00:46:03.496Z,28.03
2018-10-11T00:48:34.015Z,22.34
2018-10-11T00:51:03.440Z,22.77
2018-10-11T00:53:34.080Z,30.20
2018-10-11T00:56:03.464Z,23.70
2018-10-11T00:58:34.100Z,32.53
2018-10-11T01:01:03.495Z,28.77
2018-10-11T01:03:34.159Z,22.70
2018-10-11T01:06:03.627Z,28.83
2018-10-11T01:08:34.263Z,28.83
2018-10-11T01:11:03.675Z,22.80
2018-10-11T01:13:34.420Z,29.93
2018-10-11T01:16:03.808Z,25.77
2018-10-11T01:18:34.215Z,25.52
2018-10-11T01:21:03.646Z,23.37
2018-10-11T01:23:34.290Z,28.50
2018-10-11T01:26:03.680Z,34.70
2018-10-11T01:28:34.326Z,30.10
2018-10-11T01:31:08.875Z,25.00
2018-10-11T01:33:38.562Z,30.47
2018-10-11T01:36:08.016Z,30.17
2018-10-11T01:38:37.440Z,30.80
2018-10-11T01:41:07.240Z,29.13
2018-10-11T01:43:36.651Z,37.03
2018-10-11T01:46:06.091Z,29.90
2018-10-11T01:48:35.515Z,26.87
2018-10-11T01:51:04.923Z,32.90
2018-10-11T01:53:34.647Z,39.40
2018-10-11T01:56:04.067Z,39.73
2018-10-11T01:58:34.467Z,36.53
2018-10-11T02:01:03.870Z,34.33
2018-10-11T02:03:34.526Z,36.20
2018-10-11T02:06:03.948Z,33.73
2018-10-11T02:08:34.595Z,27.70
2018-10-11T02:11:04.052Z,35.47
2018-10-11T02:13:34.608Z,28.16
2018-10-11T02:16:04.012Z,30.27
2018-10-11T02:18:34.638Z,26.07
2018-10-11T02:21:04.043Z,31.00
2018-10-11T02:23:34.804Z,30.10
2018-10-11T02:26:04.216Z,31.10
2018-10-11T02:28:34.664Z,29.26
2018-10-11T02:31:04.082Z,29.80
2018-10-11T02:33:34.607Z,30.22
2018-10-11T02:36:04.021Z,29.40
2018-10-11T02:38:34.651Z,25.90
2018-10-11T02:41:04.060Z,32.10
2018-10-11T02:43:34.688Z,28.23
2018-10-11T02:46:04.108Z,35.80
2018-10-11T02:48:34.640Z,28.92
2018-10-11T02:51:04.021Z,25.30
2018-10-11T02:53:34.999Z,29.17
2018-10-11T02:56:05.212Z,31.80
2018-10-11T02:58:51.900Z,25.70
2018-10-11T03:01:21.632Z,77.43
2018-10-11T03:03:57.576Z,26.60
2018-10-11T03:06:27.031Z,76.83
2018-10-11T03:08:56.493Z,91.23
2018-10-11T03:11:25.927Z,65.10
2018-10-11T03:13:55.534Z,55.03
2018-10-11T03:16:24.943Z,39.00
2018-10-11T03:18:54.351Z,53.10
2018-10-11T03:21:23.767Z,36.77
2018-10-11T03:23:53.163Z,68.80
2018-10-11T03:26:22.636Z,34.90
2018-10-11T03:28:52.044Z,30.10
2018-10-11T03:31:21.442Z,26.00
2018-10-11T03:33:50.855Z,57.37
2018-10-11T03:36:20.237Z,44.33
2018-10-11T03:38:49.628Z,28.53
2018-10-11T03:41:19.064Z,25.60
2018-10-11T03:43:48.480Z,36.13
2018-10-11T03:46:17.929Z,44.37
2018-10-11T03:48:47.316Z,35.00
2018-10-11T03:51:16.719Z,29.43
2018-10-11T03:53:46.144Z,29.10
2018-10-11T03:56:15.632Z,28.73
2018-10-11T03:58:45.163Z,25.67
2018-10-11T04:01:14.599Z,32.10
2018-10-11T04:03:44.147Z,28.02
2018-10-11T04:06:13.575Z,39.00
2018-10-11T04:08:42.968Z,35.03
2018-10-11T04:11:12.364Z,29.37
2018-10-11T04:13:41.820Z,47.03
2018-10-11T04:16:11.212Z,67.93
2018-10-11T04:18:40.935Z,49.73
2018-10-11T04:21:10.924Z,96.23
2018-10-11T04:23:40.328Z,102.95
2018-10-11T04:26:09.728Z,23.77
2018-10-11T04:28:39.124Z,78.27
2018-10-11T04:31:08.667Z,147.77
2018-10-11T04:33:38.107Z,73.33
2018-10-11T04:36:07.587Z,55.63
2018-10-11T04:38:36.978Z,47.10
2018-10-11T04:41:07.043Z,75.57
2018-10-11T04:43:36.575Z,85.07
2018-10-11T04:46:05.979Z,32.20
2018-10-11T04:48:35.452Z,34.65
2018-10-11T04:51:04.988Z,32.07
2018-10-11T04:53:35.772Z,31.90
2018-10-11T04:56:05.104Z,32.53
2018-10-11T04:58:35.623Z,26.12
2018-10-11T05:01:05.047Z,23.60
2018-10-11T05:03:35.742Z,25.53
2018-10-11T05:06:05.287Z,40.23
2018-10-11T05:08:35.667Z,62.88
2018-10-11T05:11:05.127Z,71.73
2018-10-11T05:13:41.599Z,41.56
2018-10-11T05:16:11.087Z,31.30
2018-10-11T05:18:42.792Z,31.93
2018-10-11T05:21:12.235Z,40.43
2018-10-11T05:23:42.612Z,31.87
2018-10-11T05:26:12.105Z,27.20
2018-10-11T05:28:41.928Z,25.23
2018-10-11T05:31:12.045Z,22.87
2018-10-11T05:33:42.618Z,22.77
2018-10-11T05:36:12.483Z,28.73
2018-10-11T05:38:42.064Z,26.80
2018-10-11T05:41:11.887Z,24.20
2018-10-11T05:43:41.620Z,29.10
2018-10-11T05:46:20.219Z,27.40
2018-10-11T05:48:49.664Z,22.77
2018-10-11T05:51:19.837Z,44.50
2018-10-11T05:53:49.431Z,102.87
2018-10-11T05:56:20.389Z,58.87
2018-10-11T05:58:51.199Z,67.77
2018-10-11T06:01:20.922Z,130.27
2018-10-11T06:03:50.411Z,179.73
2018-10-11T06:06:19.936Z,53.97
2018-10-11T06:08:49.438Z,49.83
2018-10-11T06:11:19.283Z,34.20
2018-10-11T06:13:49.517Z,28.37
2018-10-11T06:16:18.980Z,24.70
2018-10-11T06:18:48.448Z,30.10
2018-10-11T06:21:17.869Z,27.90
2018-10-11T06:23:47.287Z,22.80
2018-10-11T06:26:16.708Z,22.07
2018-10-11T06:28:46.145Z,25.10
2018-10-11T06:31:15.700Z,20.93
2018-10-11T06:33:45.539Z,31.80
2018-10-11T06:36:15.652Z,23.77
2018-10-11T06:38:45.432Z,25.00
2018-10-11T06:41:15.045Z,19.90
2018-10-11T06:43:44.580Z,25.90
2018-10-11T06:46:14.412Z,18.77
2018-10-11T06:48:43.856Z,24.37
2018-10-11T06:51:13.336Z,17.77
2018-10-11T06:53:42.855Z,36.50
2018-10-11T06:56:12.244Z,18.33
2018-10-11T06:58:41.651Z,82.97
2018-10-11T07:01:11.075Z,24.70
2018-10-11T07:03:40.457Z,35.10
2018-10-11T07:06:09.860Z,20.50
2018-10-11T07:08:39.270Z,19.73
2018-10-11T07:11:09.048Z,17.97
2018-10-11T07:13:38.564Z,17.10
2018-10-11T07:16:07.980Z,17.10
2018-10-11T07:18:37.435Z,23.87
2018-10-11T07:21:06.824Z,20.40
2018-10-11T07:23:36.263Z,22.07
2018-10-11T07:26:05.704Z,26.10
2018-10-11T07:28:36.271Z,21.25
2018-10-11T07:31:05.669Z,21.33
2018-10-11T07:33:36.192Z,18.35
2018-10-11T07:36:05.576Z,22.50
2018-10-11T07:38:36.123Z,20.54
2018-10-11T07:41:05.615Z,17.00
2018-10-11T07:43:36.288Z,19.60
2018-10-11T07:46:05.676Z,22.27
2018-10-11T07:48:36.104Z,19.10
2018-10-11T07:51:05.499Z,19.53
2018-10-11T07:53:36.196Z,33.50
2018-10-11T07:56:05.603Z,30.27
2018-10-11T07:58:36.139Z,25.76
2018-10-11T08:01:05.588Z,24.47
2018-10-11T08:03:36.199Z,20.30
2018-10-11T08:06:06.019Z,20.23
2018-10-11T08:08:36.116Z,19.27
2018-10-11T08:11:05.780Z,18.77
2018-10-11T08:13:36.295Z,18.70
2018-10-11T08:16:06.316Z,18.60
2018-10-11T08:18:36.294Z,17.77
2018-10-11T08:21:05.644Z,18.47
2018-10-11T08:23:36.651Z,17.90
2018-10-11T08:26:06.303Z,19.23
2018-10-11T08:28:36.444Z,19.95
2018-10-11T08:31:05.964Z,18.03
2018-10-11T08:33:36.358Z,22.80
2018-10-11T08:36:05.895Z,16.70
2018-10-11T08:38:36.444Z,17.30
2018-10-11T08:41:05.909Z,18.57
2018-10-11T08:43:36.457Z,14.00
2018-10-11T08:46:05.971Z,23.43
2018-10-11T08:48:36.332Z,18.30
2018-10-11T08:51:05.828Z,19.63
2018-10-11T08:53:36.610Z,20.77
2018-10-11T08:56:06.238Z,21.00
2018-10-11T08:58:36.503Z,17.52
2018-10-11T09:01:06.003Z,20.20
2018-10-11T09:03:36.638Z,21.44
2018-10-11T09:06:05.967Z,21.50
2018-10-11T09:08:36.616Z,22.33
2018-10-11T09:11:06.408Z,18.07
2018-10-11T09:13:36.552Z,20.62
2018-10-11T09:16:05.967Z,18.00
2018-10-11T09:18:36.548Z,17.66
2018-10-11T09:21:06.647Z,20.23
2018-10-11T09:23:36.599Z,22.27
2018-10-11T09:26:06.391Z,19.10
2018-10-11T09:28:36.575Z,19.77
2018-10-11T09:31:06.205Z,21.60
2018-10-11T09:33:36.521Z,23.07
2018-10-11T09:36:06.029Z,19.57
2018-10-11T09:38:36.564Z,20.58
2018-10-11T09:41:06.184Z,20.37
2018-10-11T09:43:36.584Z,20.60
2018-10-11T09:46:06.063Z,17.80
2018-10-11T09:48:36.607Z,19.07
2018-10-11T09:51:05.984Z,21.37
2018-10-11T09:53:36.648Z,18.53
2018-10-11T09:56:06.404Z,18.37
2018-10-11T09:58:36.566Z,13.75
2018-10-11T10:01:11.200Z,14.43
2018-10-11T10:03:40.628Z,21.50
2018-10-11T10:06:10.071Z,16.80
2018-10-11T10:08:39.550Z,18.00
2018-10-11T10:11:09.168Z,15.83
2018-10-11T10:13:38.760Z,16.77
2018-10-11T10:16:08.239Z,15.50
2018-10-11T10:18:37.677Z,13.43
2018-10-11T10:21:07.140Z,13.93
2018-10-11T10:23:36.824Z,16.05
2018-10-11T10:26:06.253Z,19.40
2018-10-11T10:28:36.900Z,17.90
2018-10-11T10:31:06.324Z,19.43
2018-10-11T10:33:36.732Z,14.00
2018-10-11T10:36:06.244Z,15.90
2018-10-11T10:38:36.764Z,18.38
2018-10-11T10:41:06.199Z,13.57
2018-10-11T10:43:36.997Z,17.27
2018-10-11T10:46:06.419Z,18.27
2018-10-11T10:48:36.820Z,14.78
2018-10-11T10:51:06.175Z,15.80
2018-10-11T10:53:36.865Z,14.33
2018-10-11T10:56:06.900Z,17.97
2018-10-11T10:58:36.861Z,18.85
2018-10-11T11:01:06.295Z,13.80
2018-10-11T11:03:36.867Z,18.76
2018-10-11T11:06:06.328Z,12.97
2018-10-11T11:08:37.013Z,14.33
2018-10-11T11:11:06.731Z,19.83
2018-10-11T11:13:36.844Z,19.40
2018-10-11T11:16:06.284Z,15.43
2018-10-11T11:18:36.843Z,12.40
2018-10-11T11:21:06.573Z,17.00
2018-10-11T11:23:36.871Z,18.92
2018-10-11T11:26:06.316Z,17.90
2018-10-11T11:28:36.869Z,18.17
2018-10-11T11:31:06.324Z,18.47
2018-10-11T11:33:36.895Z,19.06
2018-10-11T11:36:06.316Z,14.67
2018-10-11T11:38:36.764Z,14.78
2018-10-11T11:41:06.204Z,14.50
2018-10-11T11:43:36.891Z,17.00
2018-10-11T11:46:06.432Z,15.20
2018-10-11T11:48:36.910Z,12.33
2018-10-11T11:51:06.895Z,17.90
2018-10-11T11:53:37.416Z,17.12
2018-10-11T11:56:07.028Z,13.70
2018-10-11T11:58:37.048Z,17.62
2018-10-11T12:01:06.673Z,16.60
2018-10-11T12:03:37.279Z,16.82
2018-10-11T12:06:07.044Z,14.00
2018-10-11T12:08:37.680Z,14.68
2018-10-11T12:11:07.690Z,10.80
2018-10-11T12:13:37.272Z,11.63
2018-10-11T12:16:06.756Z,11.80
2018-10-11T12:18:36.890Z,11.78
2018-10-11T12:21:06.328Z,12.23
2018-10-11T12:23:36.900Z,13.10
2018-10-11T12:26:06.520Z,11.87
2018-10-11T12:28:37.214Z,12.63
2018-10-11T12:31:06.927Z,13.23
2018-10-11T12:33:37.064Z,12.70
2018-10-11T12:36:06.615Z,14.33
2018-10-11T12:38:37.151Z,12.25
2018-10-11T12:41:06.561Z,12.10
2018-10-11T12:43:37.172Z,12.28
2018-10-11T12:46:06.839Z,12.50
2018-10-11T12:48:37.056Z,13.03
2018-10-11T12:51:06.799Z,12.83
2018-10-11T12:53:39.883Z,16.35
2018-10-11T12:56:06.917Z,9.60
2018-10-11T12:58:37.139Z,13.60
2018-10-11T13:01:06.651Z,12.20
2018-10-11T13:03:37.079Z,21.10
2018-10-11T13:06:06.511Z,11.00
2018-10-11T13:08:37.200Z,13.47
2018-10-11T13:11:06.646Z,14.13
2018-10-11T13:13:37.319Z,12.40
2018-10-11T13:16:06.787Z,11.60
2018-10-11T13:18:37.301Z,9.23
2018-10-11T13:21:06.752Z,11.00
2018-10-11T13:23:37.347Z,16.16
2018-10-11T13:26:06.815Z,10.40
2018-10-11T13:28:37.524Z,11.70
2018-10-11T13:31:06.941Z,10.80
2018-10-11T13:33:37.555Z,16.25
2018-10-11T13:36:07.008Z,12.20
2018-10-11T13:38:37.494Z,14.40
2018-10-11T13:41:07.006Z,11.13
2018-10-11T13:43:37.751Z,12.17
2018-10-11T13:46:07.230Z,10.73
2018-10-11T13:48:37.690Z,9.88
2018-10-11T13:51:07.263Z,13.73
2018-10-11T13:53:38.173Z,12.93
2018-10-11T13:56:07.867Z,13.47
2018-10-11T13:58:37.662Z,12.63
2018-10-11T14:01:07.584Z,11.87
2018-10-11T14:03:37.864Z,13.88
2018-10-11T14:06:07.419Z,12.43
2018-10-11T14:08:38.079Z,12.63
2018-10-11T14:11:07.766Z,13.43
2018-10-11T14:13:38.693Z,12.20
2018-10-11T14:16:08.183Z,13.53
2018-10-11T14:18:38.663Z,14.18
2018-10-11T14:21:09.301Z,13.57
2018-10-11T14:23:38.932Z,13.67
2018-10-11T14:26:09.071Z,16.40
2018-10-11T14:28:38.330Z,12.80
2018-10-11T14:31:07.751Z,10.27
2018-10-11T14:33:38.231Z,11.83
2018-10-11T14:36:08.101Z,14.90
2018-10-11T14:38:38.134Z,10.20
2018-10-11T14:41:07.847Z,12.97
2018-10-11T14:43:39.584Z,18.30
2018-10-11T14:46:09.189Z,12.43
2018-10-11T14:48:38.751Z,11.73
2018-10-11T14:51:09.223Z,23.43
2018-10-11T14:53:38.687Z,14.03
2018-10-11T14:56:08.244Z,24.10
2018-10-11T14:58:38.482Z,10.08
2018-10-11T15:01:07.912Z,16.00
2018-10-11T15:03:38.368Z,19.60
2018-10-11T15:06:07.641Z,13.57
2018-10-11T15:08:38.323Z,32.03
2018-10-11T15:11:08.120Z,19.70
2018-10-11T15:13:38.380Z,24.35
2018-10-11T15:16:07.909Z,25.40
2018-10-11T15:18:39.432Z,17.42
2018-10-11T15:21:09.267Z,49.77
2018-10-11T15:23:38.715Z,23.63
2018-10-11T15:26:08.192Z,40.80
2018-10-11T15:28:38.479Z,17.55
2018-10-11T15:31:07.901Z,57.40
2018-10-11T15:33:38.411Z,26.10
2018-10-11T15:36:07.915Z,18.80
2018-10-11T15:38:38.512Z,19.15
2018-10-11T15:41:07.924Z,12.97
2018-10-11T15:43:38.425Z,19.20
2018-10-11T15:46:08.177Z,14.57
2018-10-11T15:48:38.379Z,15.28
2018-10-11T15:51:07.855Z,17.30
2018-10-11T15:53:41.013Z,21.80
2018-10-11T15:56:10.436Z,15.20
2018-10-11T15:58:39.925Z,16.53
2018-10-11T16:01:09.291Z,16.53
2018-10-11T16:03:38.717Z,18.40
2018-10-11T16:06:08.319Z,19.73
2018-10-11T16:08:38.438Z,14.85
2018-10-11T16:11:07.888Z,16.30
2018-10-11T16:13:38.537Z,12.95
2018-10-11T16:16:07.989Z,12.00
2018-10-11T16:18:38.463Z,17.10
2018-10-11T16:21:08.040Z,16.17
2018-10-11T16:23:38.488Z,14.78
2018-10-11T16:26:07.904Z,16.43
2018-10-11T16:28:38.623Z,16.74
2018-10-11T16:31:08.031Z,19.20
2018-10-11T16:33:38.432Z,14.07
2018-10-11T16:36:07.961Z,13.93
2018-10-11T16:38:38.567Z,12.26
2018-10-11T16:41:08.006Z,16.07
2018-10-11T16:43:38.484Z,26.55
2018-10-11T16:46:07.991Z,20.17
2018-10-11T16:48:38.387Z,16.57
2018-10-11T16:51:07.900Z,21.43
2018-10-11T16:53:38.392Z,18.15
2018-10-11T16:56:07.854Z,18.90
2018-10-11T16:58:38.500Z,17.10
2018-10-11T17:01:08.347Z,16.50
2018-10-11T17:03:38.422Z,21.52
2018-10-11T17:06:07.976Z,15.07
2018-10-11T17:08:38.444Z,16.35
2018-10-11T17:11:08.097Z,19.40
2018-10-11T17:13:38.467Z,17.10
2018-10-11T17:16:07.976Z,26.07
2018-10-11T17:18:38.456Z,59.85
2018-10-11T17:21:07.980Z,42.43
2018-10-11T17:23:38.656Z,24.10
2018-10-11T17:26:08.109Z,21.33
2018-10-11T17:28:38.608Z,20.37
2018-10-11T17:31:08.328Z,23.20
2018-10-11T17:33:38.707Z,19.05
2018-10-11T17:36:08.124Z,16.77
2018-10-11T17:38:38.785Z,13.78
2018-10-11T17:41:08.368Z,14.63
2018-10-11T17:43:38.602Z,14.55
2018-10-11T17:46:08.348Z,16.77
2018-10-11T17:48:39.113Z,17.57
2018-10-11T17:51:08.781Z,20.17
2018-10-11T17:53:39.269Z,19.67
2018-10-11T17:56:09.280Z,18.87
2018-10-11T17:58:39.232Z,22.55
2018-10-11T18:01:08.788Z,18.07
2018-10-11T18:03:39.701Z,22.25
2018-10-11T18:06:10.156Z,20.33
2018-10-11T18:08:41.563Z,21.63
2018-10-11T18:11:12.930Z,19.87
2018-10-11T18:13:45.440Z,29.27
2018-10-11T18:16:16.824Z,24.73
2018-10-11T18:18:49.171Z,16.03
2018-10-11T18:21:21.685Z,21.13
2018-10-11T18:23:54.228Z,20.13
2018-10-11T18:26:25.499Z,17.37
2018-10-11T18:28:57.740Z,17.57
2018-10-11T18:31:30.038Z,18.23
2018-10-11T18:34:02.711Z,22.73
2018-10-11T18:36:35.261Z,20.70
2018-10-11T18:39:13.550Z,18.17
2018-10-11T18:41:46.537Z,13.27
2018-10-11T18:44:18.921Z,27.07
2018-10-11T18:46:51.427Z,18.60
2018-10-11T18:49:24.057Z,14.47
2018-10-11T18:51:56.731Z,17.30
2018-10-11T18:54:29.422Z,20.10
2018-10-11T18:57:02.004Z,18.33
2018-10-11T18:59:34.480Z,20.27
2018-10-11T19:02:06.906Z,18.93
2018-10-11T19:04:39.503Z,20.90
2018-10-11T19:07:12.268Z,18.53
2018-10-11T19:09:44.870Z,16.53
2018-10-11T19:12:17.420Z,18.07
2018-10-11T19:14:49.956Z,16.20
2018-10-11T19:17:23.347Z,18.73
2018-10-11T19:19:56.306Z,17.90
2018-10-11T19:22:28.798Z,19.30
2018-10-11T19:25:01.353Z,17.77
2018-10-11T19:27:34.168Z,19.83
2018-10-11T19:30:08.080Z,15.58
2018-10-11T19:32:40.756Z,18.03
2018-10-11T19:35:13.567Z,18.23
2018-10-11T19:37:45.931Z,19.37
2018-10-11T19:40:18.523Z,27.10
2018-10-11T19:42:51.066Z,18.20
2018-10-11T19:45:24.035Z,19.80
2018-10-11T19:47:56.519Z,19.20
2018-10-11T19:50:29.070Z,19.60
2018-10-11T19:53:01.551Z,21.40
2018-10-11T19:55:34.288Z,18.30
2018-10-11T19:58:06.879Z,14.80
2018-10-11T20:00:39.605Z,17.33
2018-10-11T20:03:13.284Z,15.80
2018-10-11T20:05:45.834Z,16.07
2018-10-11T20:08:18.635Z,15.50
2018-10-11T20:10:51.137Z,17.00
2018-10-11T20:13:23.848Z,16.00
2018-10-11T20:15:56.956Z,19.60
2018-10-11T20:18:29.352Z,17.87
2018-10-11T20:21:02.163Z,17.40
2018-10-11T20:23:35.120Z,18.73
2018-10-11T20:26:07.721Z,19.70
2018-10-11T20:33:46.256Z,25.30
2018-10-11T20:36:18.792Z,22.80
2018-10-11T20:38:51.588Z,22.60
2018-10-11T20:41:24.342Z,20.83
2018-10-11T20:43:57.092Z,18.50
2018-10-11T20:46:30.045Z,20.40
2018-10-11T20:49:02.826Z,16.67
2018-10-11T20:51:35.406Z,18.87
2018-10-11T20:54:08.551Z,19.97
2018-10-11T20:56:42.876Z,18.47
2018-10-11T20:59:15.730Z,20.00
2018-10-11T21:01:48.527Z,21.50
2018-10-11T21:04:21.412Z,18.20
2018-10-11T21:06:54.161Z,19.43
2018-10-11T21:09:27.030Z,22.03
2018-10-11T21:11:59.583Z,17.00
2018-10-11T21:14:32.822Z,20.47
2018-10-11T21:17:05.693Z,15.97
2018-10-11T21:19:37.842Z,19.50
2018-10-11T21:22:09.969Z,22.70
2018-10-11T21:24:40.139Z,17.70
2018-10-11T21:27:09.804Z,24.13
2018-10-11T21:29:39.437Z,21.87
2018-10-11T21:32:09.223Z,32.00
2018-10-11T21:34:39.287Z,17.73
2018-10-11T21:37:09.235Z,21.30
2018-10-11T21:39:39.212Z,21.63
2018-10-11T21:42:09.346Z,22.53
2018-10-11T21:44:39.485Z,21.13
2018-10-11T21:47:09.869Z,18.33
2018-10-11T21:49:40.479Z,21.97
2018-10-11T21:52:10.848Z,17.30
2018-10-11T21:54:41.171Z,29.20
2018-10-11T21:57:10.828Z,15.90
2018-10-11T21:59:40.480Z,19.10
2018-10-11T22:02:10.087Z,16.40
2018-10-11T22:04:40.141Z,19.80
2018-10-11T22:07:10.253Z,19.37
2018-10-11T22:09:39.872Z,17.90
2018-10-11T22:12:09.669Z,22.57
2018-10-11T22:14:39.339Z,20.00
2018-10-11T22:17:09.040Z,16.83
2018-10-11T22:19:38.707Z,20.70
2018-10-11T22:22:08.316Z,19.23
2018-10-11T22:24:37.934Z,19.10
2018-10-11T22:27:07.580Z,13.40
2018-10-11T22:29:37.245Z,22.00
2018-10-11T22:32:06.889Z,16.33
2018-10-11T22:34:36.543Z,17.77
2018-10-11T22:37:06.218Z,19.97
2018-10-11T22:39:35.969Z,16.10
2018-10-11T22:42:05.740Z,18.40
2018-10-11T22:44:35.536Z,20.57
2018-10-11T22:47:05.188Z,15.47
2018-10-11T22:49:34.826Z,19.90
2018-10-11T22:52:04.515Z,16.33
2018-10-11T22:54:34.275Z,16.53
2018-10-11T22:57:03.968Z,16.83
2018-10-11T22:59:33.644Z,18.77
2018-10-11T23:02:03.339Z,16.33
2018-10-11T23:04:33.098Z,19.67
2018-10-11T23:07:02.828Z,22.80
2018-10-11T23:09:32.518Z,18.13
2018-10-11T23:12:02.256Z,20.77
2018-10-11T23:14:32.057Z,16.53
2018-10-11T23:17:01.680Z,13.97
2018-10-11T23:19:31.387Z,17.83
2018-10-11T23:22:01.253Z,18.77
2018-10-11T23:24:30.936Z,19.07
2018-10-11T23:27:00.606Z,23.60
2018-10-11T23:29:30.285Z,20.73
2018-10-11T23:31:59.901Z,18.57
2018-10-11T23:34:29.520Z,21.10
2018-10-11T23:36:59.314Z,21.10
2018-10-11T23:39:29.084Z,18.90
2018-10-11T23:41:58.947Z,23.30
2018-10-11T23:44:28.743Z,19.97
2018-10-11T23:46:58.496Z,21.07
2018-10-11T23:49:28.342Z,24.60
2018-10-11T23:51:57.919Z,25.67
2018-10-11T23:54:27.651Z,25.87
2018-10-11T23:56:57.349Z,24.00
2018-10-11T23:59:27.089Z,23.30
